createdAt,value
2018-05-10T00:01:42.774Z,4.97
2018-05-10T00:04:12.976Z,4.87
2018-05-10T00:06:42.904Z,5.43
2018-05-10T00:09:13.224Z,4.40
2018-05-10T00:11:43.934Z,5.03
2018-05-10T00:14:13.455Z,4.47
2018-05-10T00:16:43.779Z,5.33
2018-05-10T00:19:13.494Z,4.72
2018-05-10T00:21:43.797Z,5.00
2018-05-10T00:24:13.049Z,6.15
2018-05-10T00:26:42.383Z,5.00
2018-05-10T00:29:11.626Z,5.40
2018-05-10T00:31:41.019Z,4.53
2018-05-10T00:34:10.254Z,6.03
2018-05-10T00:36:39.638Z,5.20
2018-05-10T00:39:09.650Z,4.85
2018-05-10T00:41:39.048Z,5.30
2018-05-10T00:44:09.063Z,4.30
2018-05-10T00:46:38.467Z,4.80
2018-05-10T00:49:08.338Z,5.20
2018-05-10T00:51:37.896Z,4.80
2018-05-10T00:54:07.907Z,5.32
2018-05-10T00:56:37.308Z,4.80
2018-05-10T00:59:06.546Z,5.70
2018-05-10T01:01:36.119Z,5.45
2018-05-10T01:04:05.509Z,5.40
2018-05-10T01:06:34.755Z,4.55
2018-05-10T01:09:04.231Z,4.95
2018-05-10T01:11:34.243Z,5.15
2018-05-10T01:14:03.655Z,4.90
2018-05-10T01:16:34.002Z,4.87
2018-05-10T01:19:04.729Z,4.35
2018-05-10T01:21:34.824Z,4.25
2018-05-10T01:24:04.332Z,5.07
2018-05-10T01:26:33.563Z,5.22
2018-05-10T01:29:02.939Z,7.95
2018-05-10T01:31:32.944Z,5.10
2018-05-10T01:34:02.369Z,5.93
2018-05-10T01:36:32.379Z,5.22
2018-05-10T01:39:01.777Z,5.25
2018-05-10T01:41:31.012Z,5.00
2018-05-10T01:44:00.419Z,5.22
2018-05-10T01:46:30.417Z,5.78
2018-05-10T01:48:59.799Z,5.50
2018-05-10T01:51:29.786Z,5.20
2018-05-10T01:53:59.219Z,5.10
2018-05-10T01:56:28.464Z,5.43
2018-05-10T01:58:58.643Z,5.30
2018-05-10T02:01:28.111Z,5.47
2018-05-10T02:03:57.434Z,5.25
2018-05-10T02:06:26.671Z,4.93
2018-05-10T02:08:56.248Z,5.70
2018-05-10T02:11:25.769Z,4.93
2018-05-10T02:13:55.775Z,5.47
2018-05-10T02:16:25.187Z,5.43
2018-05-10T02:18:54.422Z,6.25
2018-05-10T02:21:23.787Z,5.93
2018-05-10T02:23:53.031Z,5.50
2018-05-10T02:26:22.387Z,6.05
2018-05-10T02:28:51.633Z,5.20
2018-05-10T02:31:20.988Z,4.85
2018-05-10T02:33:50.224Z,5.45
2018-05-10T02:36:20.415Z,5.30
2018-05-10T02:38:50.020Z,5.35
2018-05-10T02:41:20.046Z,5.60
2018-05-10T02:43:50.051Z,5.35
2018-05-10T02:46:19.456Z,5.93
2018-05-10T02:48:48.700Z,5.18
2018-05-10T02:51:18.271Z,7.05
2018-05-10T02:53:47.899Z,5.60
2018-05-10T02:56:17.328Z,5.90
2018-05-10T02:58:46.632Z,5.28
2018-05-10T03:01:16.294Z,6.00
2018-05-10T03:03:45.524Z,5.55
2018-05-10T03:06:16.936Z,5.30
2018-05-10T03:08:46.176Z,5.90
2018-05-10T03:11:15.554Z,5.32
2018-05-10T03:13:44.995Z,5.25
2018-05-10T03:16:14.356Z,5.60
2018-05-10T03:18:43.738Z,5.20
2018-05-10T03:21:14.344Z,5.87
2018-05-10T03:23:43.587Z,5.80
2018-05-10T03:26:13.191Z,5.85
2018-05-10T03:28:42.615Z,5.82
2018-05-10T03:31:11.859Z,5.50
2018-05-10T03:33:41.303Z,6.15
2018-05-10T03:36:10.548Z,5.82
2018-05-10T03:38:39.908Z,5.43
2018-05-10T03:41:09.412Z,6.20
2018-05-10T03:43:38.912Z,6.15
2018-05-10T03:46:08.152Z,5.82
2018-05-10T03:48:37.520Z,6.47
2018-05-10T03:51:06.754Z,5.78
2018-05-10T03:53:36.110Z,6.00
2018-05-10T03:56:05.344Z,6.68
2018-05-10T03:58:34.715Z,7.07
2018-05-10T04:01:03.956Z,5.55
2018-05-10T04:07:15.731Z,5.47
2018-05-10T04:10:03.059Z,6.32
2018-05-10T04:12:32.300Z,6.25
2018-05-10T04:15:01.664Z,6.35
2018-05-10T04:17:30.904Z,6.32
2018-05-10T04:20:00.258Z,6.60
2018-05-10T04:22:29.504Z,6.30
2018-05-10T04:24:59.073Z,6.55
2018-05-10T04:27:28.302Z,6.18
2018-05-10T04:29:57.668Z,6.00
2018-05-10T04:32:26.905Z,6.20
2018-05-10T04:34:56.272Z,6.03
2018-05-10T04:37:25.523Z,5.70
2018-05-10T04:39:54.922Z,6.57
2018-05-10T04:42:24.293Z,5.93
2018-05-10T04:44:53.681Z,5.75
2018-05-10T04:47:23.606Z,6.20
2018-05-10T04:49:53.927Z,6.12
2018-05-10T04:52:23.938Z,5.70
2018-05-10T04:54:53.357Z,6.13
2018-05-10T04:57:22.589Z,6.33
2018-05-10T04:59:52.819Z,6.40
2018-05-10T05:02:22.480Z,6.30
2018-05-10T05:04:52.505Z,6.18
2018-05-10T05:07:22.279Z,6.50
2018-05-10T05:09:51.928Z,6.43
2018-05-10T05:12:21.148Z,6.73
2018-05-10T05:14:50.924Z,6.47
2018-05-10T05:17:20.183Z,6.63
2018-05-10T05:19:49.424Z,7.30
2018-05-10T05:22:19.039Z,6.53
2018-05-10T05:24:48.280Z,6.23
2018-05-10T05:27:19.074Z,6.60
2018-05-10T05:29:48.584Z,6.27
2018-05-10T05:32:17.828Z,7.10
2018-05-10T05:34:47.383Z,6.50
2018-05-10T05:37:16.634Z,6.83
2018-05-10T05:39:45.978Z,6.63
2018-05-10T05:42:15.695Z,6.43
2018-05-10T05:44:45.703Z,6.70
2018-05-10T05:47:15.323Z,6.40
2018-05-10T05:49:44.837Z,6.50
2018-05-10T05:52:14.072Z,6.10
2018-05-10T05:54:44.462Z,7.20
2018-05-10T05:57:13.990Z,6.70
2018-05-10T05:59:43.224Z,6.70
2018-05-10T06:02:12.768Z,6.00
2018-05-10T06:04:42.005Z,6.80
2018-05-10T06:07:11.234Z,6.80
2018-05-10T06:09:40.871Z,6.77
2018-05-10T06:12:10.667Z,6.63
2018-05-10T06:14:39.908Z,6.90
2018-05-10T06:17:11.031Z,7.20
2018-05-10T06:19:40.263Z,6.90
2018-05-10T06:22:09.508Z,7.50
2018-05-10T06:24:39.343Z,8.00
2018-05-10T06:27:09.287Z,8.23
2018-05-10T06:29:39.791Z,13.73
2018-05-10T06:32:09.315Z,8.33
2018-05-10T06:34:39.695Z,9.10
2018-05-10T06:37:09.353Z,9.20
2018-05-10T06:39:39.654Z,8.13
2018-05-10T06:42:09.160Z,7.87
2018-05-10T06:44:38.416Z,7.70
2018-05-10T06:47:11.039Z,7.67
2018-05-10T06:49:40.286Z,7.63
2018-05-10T06:52:10.349Z,7.90
2018-05-10T06:54:41.489Z,8.03
2018-05-10T06:57:11.450Z,8.40
2018-05-10T06:59:40.684Z,8.33
2018-05-10T07:02:10.331Z,8.03
2018-05-10T07:04:39.583Z,7.83
2018-05-10T07:07:08.820Z,8.40
2018-05-10T07:09:38.505Z,9.00
2018-05-10T07:12:08.035Z,8.50
2018-05-10T07:14:37.280Z,9.87
2018-05-10T07:17:06.964Z,9.50
2018-05-10T07:19:36.971Z,9.07
2018-05-10T07:22:07.642Z,10.10
2018-05-10T07:24:36.883Z,9.00
2018-05-10T07:27:06.132Z,8.77
2018-05-10T07:29:35.924Z,9.60
2018-05-10T07:32:05.161Z,8.40
2018-05-10T07:34:34.392Z,8.23
2018-05-10T07:37:05.053Z,8.60
2018-05-10T07:39:34.811Z,8.60
2018-05-10T07:42:04.334Z,8.27
2018-05-10T07:44:34.384Z,7.43
2018-05-10T07:47:03.621Z,8.17
2018-05-10T07:49:32.863Z,7.50
2018-05-10T07:52:03.923Z,7.70
2018-05-10T07:54:33.214Z,6.73
2018-05-10T07:57:02.457Z,7.40
2018-05-10T07:59:32.007Z,8.10
2018-05-10T08:02:02.054Z,8.47
2018-05-10T08:04:31.298Z,7.67
2018-05-10T08:07:01.783Z,8.43
2018-05-10T08:09:31.015Z,8.20
2018-05-10T08:12:00.248Z,7.70
2018-05-10T08:14:30.911Z,7.67
2018-05-10T08:17:00.185Z,8.60
2018-05-10T08:19:29.405Z,8.53
2018-05-10T08:21:59.028Z,9.10
2018-05-10T08:24:28.259Z,8.63
2018-05-10T08:26:57.499Z,9.70
2018-05-10T08:29:32.055Z,9.30
2018-05-10T08:32:01.427Z,8.77
2018-05-10T08:34:32.291Z,8.97
2018-05-10T08:37:01.724Z,9.80
2018-05-10T08:39:31.703Z,9.10
2018-05-10T08:42:01.831Z,9.50
2018-05-10T08:44:31.747Z,8.57
2018-05-10T08:47:00.979Z,9.00
2018-05-10T08:49:30.215Z,9.80
2018-05-10T08:51:59.914Z,8.53
2018-05-10T08:54:29.647Z,8.70
2018-05-10T08:56:58.889Z,8.80
2018-05-10T08:59:28.776Z,9.57
2018-05-10T09:01:58.011Z,9.37
2018-05-10T09:04:27.256Z,8.90
2018-05-10T09:06:57.706Z,8.67
2018-05-10T09:09:27.145Z,8.23
2018-05-10T09:11:56.384Z,9.33
2018-05-10T09:14:26.045Z,8.80
2018-05-10T09:16:56.362Z,8.67
2018-05-10T09:19:26.755Z,9.00
2018-05-10T09:21:55.909Z,8.40
2018-05-10T09:24:25.238Z,9.37
2018-05-10T09:26:55.595Z,9.63
2018-05-10T09:29:24.843Z,10.20
2018-05-10T09:31:54.076Z,8.93
2018-05-10T09:34:23.703Z,10.00
2018-05-10T09:36:52.948Z,10.27
2018-05-10T09:39:22.275Z,10.03
2018-05-10T09:41:51.807Z,8.33
2018-05-10T09:44:21.040Z,9.60
2018-05-10T09:46:50.283Z,17.13
2018-05-10T09:49:20.351Z,35.40
2018-05-10T09:51:50.020Z,14.50
2018-05-10T09:54:19.255Z,16.90
2018-05-10T09:56:48.839Z,12.53
2018-05-10T09:59:18.586Z,16.87
2018-05-10T10:01:47.835Z,20.27
2018-05-10T10:04:17.584Z,9.47
2018-05-10T10:06:47.795Z,10.77
2018-05-10T10:09:17.399Z,11.50
2018-05-10T10:11:46.879Z,10.30
2018-05-10T10:14:16.145Z,10.33
2018-05-10T10:16:45.511Z,11.27
2018-05-10T10:19:15.651Z,9.17
2018-05-10T10:21:45.995Z,10.40
2018-05-10T10:24:15.475Z,10.10
2018-05-10T10:26:45.474Z,8.70
2018-05-10T10:29:14.876Z,9.13
2018-05-10T10:31:44.719Z,9.17
2018-05-10T10:34:14.504Z,9.63
2018-05-10T10:36:44.004Z,9.73
2018-05-10T10:39:13.231Z,8.93
2018-05-10T10:41:42.817Z,9.00
2018-05-10T10:44:12.049Z,8.57
2018-05-10T10:46:41.837Z,9.03
2018-05-10T10:49:11.846Z,8.37
2018-05-10T10:51:42.895Z,8.57
2018-05-10T10:54:13.648Z,10.43
2018-05-10T10:56:43.186Z,10.17
2018-05-10T10:59:13.171Z,8.73
2018-05-10T11:01:43.563Z,9.37
2018-05-10T11:04:13.386Z,8.40
2018-05-10T11:06:42.644Z,8.50
2018-05-10T11:09:12.225Z,7.70
2018-05-10T11:11:42.212Z,8.30
2018-05-10T11:14:11.443Z,9.97
2018-05-10T11:16:41.111Z,7.93
2018-05-10T11:19:10.416Z,7.83
2018-05-10T11:21:39.656Z,8.30
2018-05-10T11:24:09.451Z,8.27
2018-05-10T11:26:39.465Z,10.00
2018-05-10T11:29:08.695Z,8.30
2018-05-10T11:31:38.364Z,8.43
2018-05-10T11:34:07.600Z,9.40
2018-05-10T11:36:36.846Z,9.87
2018-05-10T11:39:06.334Z,8.77
2018-05-10T11:41:35.551Z,8.47
2018-05-10T11:44:05.075Z,9.27
2018-05-10T11:46:34.443Z,9.47
2018-05-10T11:49:03.696Z,9.60
2018-05-10T11:51:34.199Z,9.30
2018-05-10T11:54:03.880Z,10.20
2018-05-10T11:56:33.637Z,9.13
2018-05-10T11:59:03.951Z,9.70
2018-05-10T12:01:33.192Z,8.67
2018-05-10T12:04:02.440Z,11.67
2018-05-10T12:06:31.964Z,9.50
2018-05-10T12:09:01.252Z,9.17
2018-05-10T12:11:30.476Z,10.10
2018-05-10T12:14:00.861Z,10.83
2018-05-10T12:16:30.284Z,11.17
2018-05-10T12:18:59.525Z,8.83
2018-05-10T12:21:29.207Z,9.93
2018-05-10T12:23:58.644Z,9.87
2018-05-10T12:26:28.908Z,9.30
2018-05-10T12:28:58.851Z,10.20
2018-05-10T12:31:28.855Z,10.63
2018-05-10T12:33:58.460Z,9.80
2018-05-10T12:36:27.959Z,10.10
2018-05-10T12:38:57.884Z,10.53
2018-05-10T12:41:27.600Z,18.30
2018-05-10T12:43:57.298Z,27.17
2018-05-10T12:46:26.555Z,32.50
2018-05-10T12:48:56.117Z,38.37
2018-05-10T12:51:25.353Z,40.50
2018-05-10T12:53:54.596Z,38.20
2018-05-10T12:56:25.474Z,40.97
2018-05-10T12:58:54.701Z,42.87
2018-05-10T13:01:24.377Z,41.63
2018-05-10T13:03:54.175Z,43.70
2018-05-10T13:06:24.187Z,48.07
2018-05-10T13:08:53.435Z,45.77
2018-05-10T13:11:22.972Z,44.87
2018-05-10T13:13:52.218Z,45.70
2018-05-10T13:16:22.231Z,42.23
2018-05-10T13:18:51.828Z,44.43
2018-05-10T13:21:21.835Z,43.50
2018-05-10T13:23:52.268Z,46.10
2018-05-10T13:26:22.285Z,45.13
2018-05-10T13:28:53.503Z,45.70
2018-05-10T13:31:22.739Z,44.60
2018-05-10T13:33:51.976Z,46.03
2018-05-10T13:36:21.640Z,46.90
2018-05-10T13:38:51.662Z,45.20
2018-05-10T13:41:22.083Z,47.07
2018-05-10T13:43:51.591Z,43.40
2018-05-10T13:46:21.714Z,41.30
2018-05-10T13:48:51.428Z,41.20
2018-05-10T13:51:21.747Z,38.30
2018-05-10T13:53:51.459Z,32.23
2018-05-10T13:56:21.788Z,28.67
2018-05-10T13:58:52.432Z,27.93
2018-05-10T14:01:22.241Z,28.03
2018-05-10T14:03:51.478Z,25.47
2018-05-10T14:06:20.745Z,28.10
2018-05-10T14:08:50.554Z,24.87
2018-05-10T14:11:20.288Z,27.07
2018-05-10T14:13:50.991Z,24.80
2018-05-10T14:16:20.695Z,24.57
2018-05-10T14:18:50.836Z,24.10
2018-05-10T14:21:21.152Z,25.13
2018-05-10T14:23:51.462Z,23.77
2018-05-10T14:26:20.747Z,24.85
2018-05-10T14:28:50.231Z,28.13
2018-05-10T14:31:19.983Z,25.10
2018-05-10T14:33:49.999Z,32.80
2018-05-10T14:36:20.427Z,28.23
2018-05-10T14:38:50.451Z,25.73
2018-05-10T14:41:19.908Z,21.65
2018-05-10T14:43:49.574Z,20.35
2018-05-10T14:46:19.616Z,19.20
2018-05-10T14:48:48.867Z,20.95
2018-05-10T14:51:19.307Z,19.12
2018-05-10T14:53:49.342Z,19.70
2018-05-10T14:56:18.584Z,18.85
2018-05-10T14:58:48.271Z,18.92
2018-05-10T15:01:17.831Z,17.37
2018-05-10T15:03:47.081Z,19.65
2018-05-10T15:06:16.685Z,18.65
2018-05-10T15:08:46.259Z,19.30
2018-05-10T15:11:16.588Z,19.20
2018-05-10T15:13:46.908Z,19.12
2018-05-10T15:16:16.622Z,18.25
2018-05-10T15:18:46.947Z,19.45
2018-05-10T15:21:17.684Z,19.23
2018-05-10T15:23:47.701Z,18.27
2018-05-10T15:26:17.303Z,20.15
2018-05-10T15:28:46.807Z,18.75
2018-05-10T15:31:16.828Z,20.58
2018-05-10T15:33:46.392Z,21.70
2018-05-10T15:36:15.639Z,21.40
2018-05-10T15:38:44.880Z,22.17
2018-05-10T15:41:14.551Z,21.35
2018-05-10T15:43:44.574Z,21.23
2018-05-10T15:46:13.812Z,19.83
2018-05-10T15:48:43.675Z,19.55
2018-05-10T15:51:12.928Z,20.45
2018-05-10T15:53:42.194Z,18.23
2018-05-10T15:56:11.984Z,18.85
2018-05-10T15:58:41.230Z,16.52
2018-05-10T16:01:10.636Z,16.58
2018-05-10T16:03:40.923Z,16.37
2018-05-10T16:06:10.940Z,14.38
2018-05-10T16:08:40.752Z,14.57
2018-05-10T16:11:11.071Z,11.88
2018-05-10T16:13:40.332Z,10.88
2018-05-10T16:16:09.891Z,11.18
2018-05-10T16:18:39.899Z,8.20
2018-05-10T16:21:09.519Z,7.65
2018-05-10T16:23:39.216Z,6.75
2018-05-10T16:26:08.472Z,5.57
2018-05-10T16:28:38.644Z,5.85
2018-05-10T16:31:07.884Z,5.45
2018-05-10T16:33:37.251Z,4.93
2018-05-10T16:36:07.743Z,4.93
2018-05-10T16:38:37.289Z,4.55
2018-05-10T16:41:07.312Z,4.68
2018-05-10T16:43:36.795Z,4.70
2018-05-10T16:46:06.814Z,4.43
2018-05-10T16:48:36.736Z,4.53
2018-05-10T16:51:05.960Z,4.20
2018-05-10T16:53:35.333Z,4.20
2018-05-10T16:56:04.571Z,5.62
2018-05-10T16:58:33.935Z,3.92
2018-05-10T17:01:03.503Z,5.47
2018-05-10T17:03:32.961Z,4.70
2018-05-10T17:06:03.252Z,5.47
2018-05-10T17:08:33.189Z,4.20
2018-05-10T17:11:03.039Z,3.70
2018-05-10T17:13:32.603Z,3.60
2018-05-10T17:16:01.947Z,3.70
2018-05-10T17:18:31.214Z,3.92
2018-05-10T17:21:00.723Z,3.45
2018-05-10T17:23:30.544Z,3.72
2018-05-10T17:26:00.358Z,3.50
2018-05-10T17:28:30.359Z,3.50
2018-05-10T17:31:01.469Z,3.97
2018-05-10T17:33:30.657Z,3.85
2018-05-10T17:36:00.217Z,3.45
2018-05-10T17:38:29.659Z,4.18
2018-05-10T17:40:59.110Z,3.72
2018-05-10T17:43:28.343Z,3.90
2018-05-10T17:45:57.827Z,4.28
2018-05-10T17:48:27.067Z,4.47
2018-05-10T17:50:56.603Z,4.68
2018-05-10T17:53:25.846Z,3.78
2018-05-10T17:55:55.235Z,4.30
2018-05-10T17:58:24.689Z,3.75
2018-05-10T18:00:54.258Z,4.03
2018-05-10T18:03:24.251Z,3.95
2018-05-10T18:05:53.876Z,3.97
2018-05-10T18:08:23.579Z,4.35
2018-05-10T18:10:53.291Z,3.90
2018-05-10T18:13:22.641Z,4.85
2018-05-10T18:15:51.879Z,4.25
2018-05-10T18:18:22.020Z,5.22
2018-05-10T18:20:51.483Z,4.50
2018-05-10T18:23:20.902Z,5.10
2018-05-10T18:25:50.064Z,4.15
2018-05-10T18:28:19.424Z,4.78
2018-05-10T18:30:49.433Z,5.75
2018-05-10T18:33:18.911Z,7.25
2018-05-10T18:35:48.324Z,5.93
2018-05-10T18:38:18.490Z,4.95
2018-05-10T18:40:48.221Z,5.30
2018-05-10T18:43:20.287Z,5.72
2018-05-10T18:45:49.668Z,5.15
2018-05-10T18:48:19.981Z,6.40
2018-05-10T18:50:50.348Z,4.82
2018-05-10T18:53:19.800Z,4.90
2018-05-10T18:55:49.035Z,5.62
2018-05-10T18:58:18.411Z,5.75
2018-05-10T19:00:47.910Z,5.97
2018-05-10T19:03:17.428Z,5.20
2018-05-10T19:05:46.775Z,5.22
2018-05-10T19:08:16.083Z,5.00
2018-05-10T19:10:45.541Z,5.53
2018-05-10T19:13:15.539Z,4.72
2018-05-10T19:15:44.988Z,5.07
2018-05-10T19:18:14.897Z,5.45
2018-05-10T19:20:44.391Z,6.15
2018-05-10T19:23:14.412Z,5.25
2018-05-10T19:25:43.808Z,4.93
2018-05-10T19:28:13.829Z,4.78
2018-05-10T19:30:43.153Z,5.55
2018-05-10T19:33:12.385Z,3.97
2018-05-10T19:35:41.823Z,4.28
2018-05-10T19:38:11.064Z,4.68
2018-05-10T19:40:40.588Z,5.22
2018-05-10T19:43:09.815Z,5.57
2018-05-10T19:45:39.283Z,6.47
2018-05-10T19:48:09.158Z,6.05
2018-05-10T19:50:39.673Z,6.50
2018-05-10T19:53:09.293Z,6.00
2018-05-10T19:55:38.648Z,5.37
2018-05-10T19:58:08.200Z,5.72
2018-05-10T20:00:38.381Z,5.03
2018-05-10T20:03:08.223Z,5.00
2018-05-10T20:05:38.057Z,6.60
2018-05-10T20:08:07.544Z,4.78
2018-05-10T20:10:36.790Z,5.35
2018-05-10T20:13:07.248Z,4.85
2018-05-10T20:15:36.803Z,4.68
2018-05-10T20:18:06.166Z,5.28
2018-05-10T20:20:35.401Z,5.25
2018-05-10T20:23:04.786Z,4.68
2018-05-10T20:25:34.043Z,5.85
2018-05-10T20:28:03.587Z,5.15
2018-05-10T20:30:32.991Z,6.50
2018-05-10T20:33:02.351Z,6.22
2018-05-10T20:35:31.596Z,5.60
2018-05-10T20:38:01.224Z,4.93
2018-05-10T20:40:31.524Z,5.03
2018-05-10T20:43:01.569Z,6.60
2018-05-10T20:45:30.961Z,5.50
2018-05-10T20:48:00.968Z,4.75
2018-05-10T20:50:31.190Z,5.93
2018-05-10T20:53:00.708Z,5.60
2018-05-10T20:55:31.032Z,5.62
2018-05-10T20:58:00.931Z,5.35
2018-05-10T21:00:30.438Z,4.55
2018-05-10T21:02:59.671Z,5.43
2018-05-10T21:05:29.040Z,6.25
2018-05-10T21:07:58.271Z,4.85
2018-05-10T21:10:27.655Z,6.25
2018-05-10T21:12:56.887Z,6.72
2018-05-10T21:15:26.239Z,6.78
2018-05-10T21:17:55.602Z,8.32
2018-05-10T21:20:25.059Z,4.50
2018-05-10T21:22:54.287Z,4.55
2018-05-10T21:25:23.632Z,4.80
2018-05-10T21:27:52.867Z,5.00
2018-05-10T21:30:22.868Z,5.70
2018-05-10T21:32:52.204Z,5.00
2018-05-10T21:35:22.427Z,4.65
2018-05-10T21:37:51.672Z,5.32
2018-05-10T21:40:21.619Z,6.03
2018-05-10T21:42:51.680Z,6.22
2018-05-10T21:45:21.655Z,5.55
2018-05-10T21:47:51.059Z,5.05
2018-05-10T21:50:27.055Z,5.90
2018-05-10T21:52:56.616Z,6.78
2018-05-10T21:55:25.947Z,6.40
2018-05-10T21:57:55.425Z,5.60
2018-05-10T22:00:24.815Z,6.30
2018-05-10T22:02:54.227Z,6.45
2018-05-10T22:05:23.455Z,5.37
2018-05-10T22:07:52.828Z,5.20
2018-05-10T22:10:22.071Z,6.70
2018-05-10T22:12:51.639Z,6.60
2018-05-10T22:15:21.139Z,6.82
2018-05-10T22:17:50.684Z,6.47
2018-05-10T22:20:20.430Z,5.70
2018-05-10T22:22:50.485Z,6.70
2018-05-10T22:25:19.859Z,6.28
2018-05-10T22:27:49.282Z,6.95
2018-05-10T22:30:18.639Z,7.12
2018-05-10T22:32:48.098Z,6.25
2018-05-10T22:35:17.851Z,7.18
2018-05-10T22:37:47.311Z,6.35
2018-05-10T22:40:16.560Z,7.62
2018-05-10T22:42:45.790Z,6.45
2018-05-10T22:45:15.215Z,7.57
2018-05-10T22:47:45.904Z,6.28
2018-05-10T22:50:15.455Z,7.45
2018-05-10T22:52:44.691Z,6.55
2018-05-10T22:55:14.054Z,6.37
2018-05-10T22:57:44.901Z,6.05
2018-05-10T23:00:14.337Z,6.85
2018-05-10T23:02:43.571Z,6.40
2018-05-10T23:05:13.100Z,8.02
2018-05-10T23:07:42.346Z,6.60
2018-05-10T23:10:11.925Z,6.65
2018-05-10T23:12:41.426Z,6.40
2018-05-10T23:15:10.936Z,6.47
2018-05-10T23:17:40.935Z,5.87
2018-05-10T23:20:10.348Z,6.55
2018-05-10T23:22:39.583Z,5.93
2018-05-10T23:25:08.951Z,6.45
2018-05-10T23:27:38.348Z,5.60
2018-05-10T23:30:07.771Z,5.75
2018-05-10T23:32:38.587Z,5.50
2018-05-10T23:35:07.992Z,5.87
2018-05-10T23:37:37.333Z,7.03
2018-05-10T23:40:06.570Z,5.18
2018-05-10T23:42:36.736Z,5.68
2018-05-10T23:45:06.727Z,4.90
2018-05-10T23:47:36.136Z,5.35
2018-05-10T23:50:05.464Z,5.03
2018-05-10T23:52:35.588Z,4.90
2018-05-10T23:55:05.594Z,5.45
2018-05-10T23:57:34.981Z,4.68
